BIVO/VPN METAR and TAF weather

Enter ICAO airport designator
Station Type Date Time Source
BIVO METAR 2021/05/13 07:00 UTC NOAA

BIVO 130700Z 00000KT CAVOK 00/M04 Q1025


Station Type Date Time Source
BIVO Decoded METAR 2021/05/13 07:00 UTC NOAA

Skjaldthingsstadir, Iceland (BIVO) 65-42N 014-49W 48M
May 13, 2021 - 03:00 AM EDT / 2021.05.13 0700 UTC
Wind: Calm:0
Visibility: greater than 7 mile(s):0
Temperature: 32 F (0 C)
Dew Point: 24 F (-4 C)
Relative Humidity: 74%
Pressure (altimeter): 30.27 in. Hg (1025 hPa)
ob: BIVO 130700Z 00000KT CAVOK 00/M04 Q1025
cycle: 7

Station Type Date Time Source
BIVO TAF UTC NOAA

Error!

Example: see airport list